createdAt,value
2022-12-23T00:00:12.410Z,88.28
2022-12-23T00:05:06.344Z,88.27
2022-12-23T00:09:58.168Z,88.33
2022-12-23T00:15:07.901Z,87.82
2022-12-23T00:19:59.500Z,87.77
2022-12-23T00:24:51.062Z,87.73
2022-12-23T00:29:42.584Z,87.58
2022-12-23T00:34:34.131Z,86.54
2022-12-23T00:39:44.365Z,86.52
2022-12-23T00:44:35.887Z,86.41
2022-12-23T00:49:42.410Z,86.32
2022-12-23T00:54:34.017Z,86.28
2022-12-23T00:59:27.010Z,85.92
2022-12-23T01:04:38.304Z,86.23
2022-12-23T01:09:30.213Z,85.68
2022-12-23T01:14:22.384Z,86.20
2022-12-23T01:19:14.033Z,86.12
2022-12-23T01:24:08.086Z,85.98
2022-12-23T01:29:00.056Z,86.40
2022-12-23T01:33:52.481Z,86.43
2022-12-23T01:38:44.558Z,86.71
2022-12-23T01:43:50.895Z,86.64
2022-12-23T01:48:51.137Z,87.36
2022-12-23T01:53:50.361Z,87.30
2022-12-23T01:58:55.111Z,87.18
2022-12-23T02:03:49.440Z,86.74
2022-12-23T02:08:59.762Z,87.09
2022-12-23T02:14:28.180Z,87.00
2022-12-23T02:19:47.888Z,87.35
2022-12-23T02:25:07.368Z,86.99
2022-12-23T02:30:26.981Z,86.93
2022-12-23T02:35:18.575Z,87.26
2022-12-23T02:40:10.998Z,86.81
2022-12-23T02:45:34.972Z,86.34
2022-12-23T02:50:31.770Z,86.51
2022-12-23T02:55:28.943Z,86.45
2022-12-23T03:00:21.440Z,85.68
2022-12-23T03:05:40.571Z,84.90
2022-12-23T03:11:10.397Z,84.36
2022-12-23T03:16:14.224Z,83.39
2022-12-23T03:21:15.831Z,82.74
2022-12-23T03:26:33.949Z,82.15
2022-12-23T03:31:29.598Z,81.94
2022-12-23T03:36:29.727Z,81.16
2022-12-23T03:41:46.203Z,81.47
2022-12-23T03:46:46.725Z,81.66
2022-12-23T03:51:51.060Z,80.80
2022-12-23T03:56:51.193Z,80.46
2022-12-23T04:01:51.797Z,80.14
2022-12-23T04:06:59.401Z,80.21
2022-12-23T04:11:51.768Z,80.25
2022-12-23T04:16:44.369Z,80.51
2022-12-23T04:21:35.925Z,79.82
2022-12-23T04:26:27.429Z,80.26
2022-12-23T04:31:21.047Z,81.71
2022-12-23T04:36:12.661Z,82.01
2022-12-23T04:41:04.360Z,83.50
2022-12-23T04:45:55.868Z,83.52
2022-12-23T04:50:47.354Z,83.08
2022-12-23T04:55:39.469Z,82.85
2022-12-23T05:00:37.129Z,82.78
2022-12-23T05:05:30.788Z,82.55
2022-12-23T05:10:22.269Z,82.67
2022-12-23T05:15:13.828Z,82.56
2022-12-23T05:20:05.825Z,83.10
2022-12-23T05:24:57.368Z,82.84
2022-12-23T05:29:48.911Z,82.65
2022-12-23T05:34:40.461Z,82.86
2022-12-23T05:39:32.031Z,83.09
2022-12-23T05:44:23.682Z,83.13
2022-12-23T05:49:15.375Z,83.23
2022-12-23T05:54:08.202Z,82.85
2022-12-23T05:58:59.707Z,82.97
2022-12-23T06:03:51.577Z,81.71
2022-12-23T06:08:43.235Z,81.29
2022-12-23T06:13:34.738Z,80.71
2022-12-23T06:18:26.298Z,80.29
2022-12-23T06:23:18.408Z,80.84
2022-12-23T06:28:10.049Z,80.76
2022-12-23T06:33:02.067Z,80.77
2022-12-23T06:37:53.621Z,81.30
2022-12-23T06:42:47.479Z,82.00
2022-12-23T06:47:39.144Z,83.25
2022-12-23T06:52:31.503Z,84.31
2022-12-23T06:57:23.023Z,84.73
2022-12-23T07:02:15.084Z,85.17
2022-12-23T07:07:06.853Z,85.07
2022-12-23T07:11:58.494Z,85.41
2022-12-23T07:16:51.428Z,85.71
2022-12-23T07:21:43.278Z,86.02
2022-12-23T07:26:34.787Z,86.39
2022-12-23T07:31:28.477Z,87.05
2022-12-23T07:36:20.129Z,86.82
2022-12-23T07:41:11.681Z,86.98
2022-12-23T07:46:08.287Z,86.95
2022-12-23T07:51:04.001Z,86.93
2022-12-23T07:55:56.765Z,87.01
2022-12-23T08:00:48.553Z,86.63
2022-12-23T08:05:40.119Z,86.90
2022-12-23T08:10:32.485Z,87.14
2022-12-23T08:15:24.781Z,86.57
2022-12-23T08:20:16.409Z,86.24
2022-12-23T08:25:08.359Z,85.98
2022-12-23T08:29:59.863Z,86.04
2022-12-23T08:34:51.450Z,85.51
2022-12-23T08:39:43.681Z,85.56
2022-12-23T08:44:35.361Z,85.40
2022-12-23T08:49:28.448Z,85.61
2022-12-23T08:54:20.551Z,85.63
2022-12-23T08:59:18.723Z,85.19
2022-12-23T09:04:11.000Z,84.91
2022-12-23T09:09:04.168Z,85.54
2022-12-23T09:13:57.861Z,85.45
2022-12-23T09:18:49.411Z,86.58
2022-12-23T09:23:41.660Z,87.46
2022-12-23T09:28:34.310Z,87.49
2022-12-23T09:33:26.007Z,86.94
2022-12-23T09:38:17.539Z,86.34
2022-12-23T09:43:36.144Z,85.66
2022-12-23T09:48:33.549Z,85.22
2022-12-23T09:53:35.872Z,84.91
2022-12-23T09:58:49.019Z,84.23
2022-12-23T10:03:54.514Z,84.25
2022-12-23T10:08:51.401Z,84.30
2022-12-23T10:13:53.429Z,84.30
2022-12-23T10:18:53.921Z,84.39
2022-12-23T10:23:51.216Z,85.29
2022-12-23T10:28:44.537Z,84.77
2022-12-23T10:33:50.569Z,84.34
2022-12-23T10:38:48.517Z,84.40
2022-12-23T10:44:03.242Z,83.72
2022-12-23T10:49:02.491Z,84.15
2022-12-23T10:54:13.039Z,83.74
2022-12-23T10:59:06.948Z,82.69
2022-12-23T11:04:26.029Z,82.26
2022-12-23T11:09:24.854Z,82.31
2022-12-23T11:14:40.670Z,83.03
2022-12-23T11:19:32.944Z,82.53
2022-12-23T11:24:28.591Z,82.71
2022-12-23T11:29:24.766Z,82.42
2022-12-23T11:34:38.782Z,83.01
2022-12-23T11:39:33.884Z,84.00
2022-12-23T11:44:32.305Z,85.12
2022-12-23T11:49:26.719Z,86.53
2022-12-23T11:54:20.539Z,88.00
2022-12-23T11:59:40.186Z,88.38
2022-12-23T12:04:35.606Z,87.02
2022-12-23T12:09:30.560Z,87.23
2022-12-23T12:14:41.695Z,87.28
2022-12-23T12:19:39.560Z,87.76
2022-12-23T12:24:44.083Z,88.66
2022-12-23T12:30:01.060Z,89.62
2022-12-23T12:35:06.418Z,90.07
2022-12-23T12:40:01.002Z,99.69
2022-12-23T12:45:02.284Z,98.88
2022-12-23T12:50:17.341Z,98.03
2022-12-23T12:55:17.499Z,96.47
2022-12-23T13:00:22.302Z,95.77
2022-12-23T13:05:33.947Z,96.09
2022-12-23T13:10:41.433Z,96.87
2022-12-23T13:15:44.846Z,96.63
2022-12-23T13:20:43.001Z,97.20
2022-12-23T13:26:00.528Z,97.64
2022-12-23T13:31:00.470Z,97.52
2022-12-23T13:35:59.780Z,97.67
2022-12-23T13:41:07.399Z,97.22
2022-12-23T13:46:06.028Z,97.25
2022-12-23T13:51:14.273Z,97.78
2022-12-23T13:56:22.379Z,97.41
2022-12-23T14:01:13.925Z,98.06
2022-12-23T14:06:23.423Z,98.11
2022-12-23T14:11:16.773Z,98.02
2022-12-23T14:16:17.921Z,97.51
2022-12-23T14:21:25.571Z,100.00
2022-12-23T14:26:46.162Z,100.00
2022-12-23T14:31:40.846Z,100.00
2022-12-23T14:36:33.732Z,100.00
2022-12-23T14:41:38.546Z,100.00
2022-12-23T14:46:36.207Z,100.00
2022-12-23T14:51:41.221Z,100.00
2022-12-23T14:56:39.468Z,100.00
2022-12-23T15:01:39.249Z,100.00
2022-12-23T15:06:33.579Z,100.00
2022-12-23T15:11:29.076Z,100.00
2022-12-23T15:16:35.460Z,100.00
2022-12-23T15:21:34.101Z,100.00
2022-12-23T15:26:30.297Z,100.00
2022-12-23T15:31:28.506Z,100.00
2022-12-23T15:36:42.992Z,100.00
2022-12-23T15:41:43.022Z,100.00
2022-12-23T15:46:40.167Z,100.00
2022-12-23T15:56:50.207Z,100.00
2022-12-23T16:01:42.041Z,100.00
2022-12-23T16:06:36.088Z,100.00
2022-12-23T16:11:57.984Z,100.00
2022-12-23T16:16:53.952Z,99.98
2022-12-23T16:21:46.378Z,99.86
2022-12-23T16:26:44.691Z,99.19
2022-12-23T16:31:37.428Z,98.10
2022-12-23T16:36:29.014Z,95.01
2022-12-23T16:41:21.544Z,92.79
2022-12-23T16:46:17.024Z,90.56
2022-12-23T16:51:14.706Z,88.18
2022-12-23T16:56:12.322Z,87.14
2022-12-23T17:01:04.919Z,85.20
2022-12-23T17:05:56.463Z,84.13
2022-12-23T17:10:48.119Z,83.09
2022-12-23T17:15:39.737Z,81.58
2022-12-23T17:20:32.081Z,80.20
2022-12-23T17:25:26.690Z,80.27
2022-12-23T17:30:21.770Z,79.74
2022-12-23T17:35:22.345Z,80.35
2022-12-23T17:40:14.972Z,79.08
2022-12-23T17:45:19.209Z,78.65
2022-12-23T17:50:11.227Z,79.31
2022-12-23T17:55:02.822Z,79.38
2022-12-23T17:59:55.012Z,78.76
2022-12-23T18:04:49.801Z,80.34
2022-12-23T18:09:41.376Z,81.20
2022-12-23T18:14:33.723Z,78.98
2022-12-23T18:19:25.640Z,78.76
2022-12-23T18:24:17.824Z,78.07
2022-12-23T18:29:09.513Z,77.73
2022-12-23T18:34:01.308Z,77.86
2022-12-23T18:38:53.629Z,77.25
2022-12-23T18:43:45.225Z,77.68
2022-12-23T18:48:39.757Z,77.68
2022-12-23T18:53:33.735Z,78.08
2022-12-23T18:58:25.499Z,78.53
2022-12-23T19:03:22.437Z,77.60
2022-12-23T19:08:14.119Z,76.73
2022-12-23T19:13:05.625Z,76.48
2022-12-23T19:17:57.361Z,77.66
2022-12-23T19:22:49.131Z,77.23
2022-12-23T19:27:42.138Z,76.67
2022-12-23T19:32:33.776Z,76.77
2022-12-23T19:37:25.391Z,76.21
2022-12-23T19:42:17.252Z,75.06
2022-12-23T19:47:08.868Z,76.28
2022-12-23T19:52:01.557Z,76.64
2022-12-23T19:56:53.263Z,77.30
2022-12-23T20:01:45.649Z,77.64
2022-12-23T20:06:38.363Z,77.51
2022-12-23T20:11:34.325Z,77.26
2022-12-23T20:16:26.797Z,77.20
2022-12-23T20:21:18.856Z,77.96
2022-12-23T20:26:12.389Z,77.67
2022-12-23T20:31:19.292Z,77.21
2022-12-23T20:36:13.511Z,76.17
2022-12-23T20:41:10.823Z,74.69
2022-12-23T20:46:06.904Z,73.91
2022-12-23T20:51:07.052Z,74.36
2022-12-23T20:56:09.576Z,74.33
2022-12-23T21:01:12.563Z,73.18
2022-12-23T21:06:05.353Z,71.91
2022-12-23T21:10:58.987Z,73.97
2022-12-23T21:15:50.837Z,73.52
2022-12-23T21:20:42.381Z,73.77
2022-12-23T21:25:34.146Z,72.62
2022-12-23T21:30:25.682Z,71.95
2022-12-23T21:35:17.327Z,73.14
2022-12-23T21:40:09.737Z,71.68
2022-12-23T21:45:01.464Z,70.74
2022-12-23T21:49:52.984Z,70.82
2022-12-23T21:54:44.578Z,70.60
2022-12-23T21:59:36.162Z,71.05
2022-12-23T22:04:27.792Z,70.80
2022-12-23T22:09:19.683Z,70.39
2022-12-23T22:14:14.011Z,70.24
2022-12-23T22:19:08.771Z,70.65
2022-12-23T22:24:01.387Z,70.61
2022-12-23T22:28:57.696Z,70.01
2022-12-23T22:33:49.297Z,69.45
2022-12-23T22:38:41.982Z,69.90
2022-12-23T22:43:33.723Z,70.04
2022-12-23T22:48:28.777Z,69.71
2022-12-23T22:53:24.847Z,69.48
2022-12-23T22:58:19.488Z,69.18
2022-12-23T23:03:11.038Z,69.02
2022-12-23T23:08:02.608Z,69.23
2022-12-23T23:12:54.120Z,69.19
2022-12-23T23:17:46.491Z,69.29
2022-12-23T23:22:38.129Z,69.14
2022-12-23T23:27:54.823Z,68.50
2022-12-23T23:32:46.435Z,68.53
2022-12-23T23:37:42.881Z,68.60
2022-12-23T23:42:34.434Z,68.61
2022-12-23T23:47:26.070Z,69.12
2022-12-23T23:52:17.814Z,68.97
2022-12-23T23:57:10.258Z,68.63
